sensor_id;sensor_type;location;lat;lon;timestamp;P1;durP1;ratioP1;P2;durP2;ratioP2
78131;SDS011;67381;47.672;9.380;2024-01-11T00:00:51;57.33;;;23.80;;
78131;SDS011;67381;47.672;9.380;2024-01-11T00:03:18;55.53;;;22.50;;
78131;SDS011;67381;47.672;9.380;2024-01-11T00:05:45;56.40;;;25.40;;
78131;SDS011;67381;47.672;9.380;2024-01-11T00:08:12;48.22;;;23.52;;
78131;SDS011;67381;47.672;9.380;2024-01-11T00:10:40;48.88;;;22.00;;
78131;SDS011;67381;47.672;9.380;2024-01-11T00:13:07;49.13;;;22.02;;
78131;SDS011;67381;47.672;9.380;2024-01-11T00:15:34;46.30;;;20.73;;
78131;SDS011;67381;47.672;9.380;2024-01-11T00:18:01;49.92;;;22.73;;
78131;SDS011;67381;47.672;9.380;2024-01-11T00:20:28;45.97;;;22.85;;
78131;SDS011;67381;47.672;9.380;2024-01-11T00:22:55;56.50;;;23.65;;
78131;SDS011;67381;47.672;9.380;2024-01-11T00:25:22;44.92;;;21.13;;
78131;SDS011;67381;47.672;9.380;2024-01-11T00:27:50;50.95;;;21.63;;
78131;SDS011;67381;47.672;9.380;2024-01-11T00:30:17;55.95;;;22.27;;
78131;SDS011;67381;47.672;9.380;2024-01-11T00:32:44;54.42;;;23.50;;
78131;SDS011;67381;47.672;9.380;2024-01-11T00:35:11;55.15;;;24.58;;
78131;SDS011;67381;47.672;9.380;2024-01-11T00:37:38;50.35;;;25.25;;
78131;SDS011;67381;47.672;9.380;2024-01-11T00:40:06;51.75;;;21.42;;
78131;SDS011;67381;47.672;9.380;2024-01-11T00:42:33;52.47;;;23.35;;
78131;SDS011;67381;47.672;9.380;2024-01-11T00:45:01;53.58;;;20.83;;
78131;SDS011;67381;47.672;9.380;2024-01-11T00:47:28;52.28;;;21.33;;
78131;SDS011;67381;47.672;9.380;2024-01-11T00:49:55;44.55;;;21.55;;
78131;SDS011;67381;47.672;9.380;2024-01-11T00:52:23;50.15;;;23.13;;
78131;SDS011;67381;47.672;9.380;2024-01-11T00:54:50;43.63;;;20.00;;
78131;SDS011;67381;47.672;9.380;2024-01-11T00:57:17;42.60;;;20.83;;
78131;SDS011;67381;47.672;9.380;2024-01-11T00:59:45;46.85;;;20.90;;
78131;SDS011;67381;47.672;9.380;2024-01-11T01:02:12;50.25;;;20.23;;
78131;SDS011;67381;47.672;9.380;2024-01-11T01:04:39;52.83;;;21.25;;
78131;SDS011;67381;47.672;9.380;2024-01-11T01:07:06;49.88;;;21.23;;
78131;SDS011;67381;47.672;9.380;2024-01-11T01:09:33;54.47;;;22.17;;
78131;SDS011;67381;47.672;9.380;2024-01-11T01:12:00;52.63;;;22.17;;
78131;SDS011;67381;47.672;9.380;2024-01-11T01:14:27;50.47;;;21.60;;
78131;SDS011;67381;47.672;9.380;2024-01-11T01:16:54;46.35;;;23.83;;
78131;SDS011;67381;47.672;9.380;2024-01-11T01:19:21;49.55;;;22.20;;
78131;SDS011;67381;47.672;9.380;2024-01-11T01:21:48;46.03;;;21.90;;
78131;SDS011;67381;47.672;9.380;2024-01-11T01:24:15;52.22;;;21.42;;
78131;SDS011;67381;47.672;9.380;2024-01-11T01:26:42;47.35;;;20.80;;
78131;SDS011;67381;47.672;9.380;2024-01-11T01:29:09;46.88;;;22.75;;
78131;SDS011;67381;47.672;9.380;2024-01-11T01:31:36;45.30;;;21.50;;
78131;SDS011;67381;47.672;9.380;2024-01-11T01:34:04;45.03;;;21.80;;
78131;SDS011;67381;47.672;9.380;2024-01-11T01:36:32;49.88;;;22.25;;
78131;SDS011;67381;47.672;9.380;2024-01-11T01:38:59;44.80;;;20.65;;
78131;SDS011;67381;47.672;9.380;2024-01-11T01:41:26;47.75;;;21.08;;
78131;SDS011;67381;47.672;9.380;2024-01-11T01:43:53;42.03;;;19.08;;
78131;SDS011;67381;47.672;9.380;2024-01-11T01:46:21;44.05;;;21.05;;
78131;SDS011;67381;47.672;9.380;2024-01-11T01:48:50;37.63;;;19.15;;
78131;SDS011;67381;47.672;9.380;2024-01-11T01:51:17;50.17;;;19.20;;
78131;SDS011;67381;47.672;9.380;2024-01-11T01:53:44;41.17;;;19.10;;
78131;SDS011;67381;47.672;9.380;2024-01-11T01:56:11;40.35;;;20.17;;
78131;SDS011;67381;47.672;9.380;2024-01-11T01:58:39;45.28;;;21.35;;
78131;SDS011;67381;47.672;9.380;2024-01-11T02:01:08;39.60;;;18.00;;
78131;SDS011;67381;47.672;9.380;2024-01-11T02:03:36;45.17;;;20.45;;
78131;SDS011;67381;47.672;9.380;2024-01-11T02:06:04;47.17;;;20.70;;
78131;SDS011;67381;47.672;9.380;2024-01-11T02:08:32;47.72;;;20.52;;
78131;SDS011;67381;47.672;9.380;2024-01-11T02:10:59;55.47;;;20.50;;
78131;SDS011;67381;47.672;9.380;2024-01-11T02:13:26;49.53;;;18.98;;
78131;SDS011;67381;47.672;9.380;2024-01-11T02:15:53;44.92;;;19.17;;
78131;SDS011;67381;47.672;9.380;2024-01-11T02:18:20;50.10;;;21.63;;
78131;SDS011;67381;47.672;9.380;2024-01-11T02:20:47;44.85;;;19.95;;
78131;SDS011;67381;47.672;9.380;2024-01-11T02:23:16;50.92;;;21.90;;
78131;SDS011;67381;47.672;9.380;2024-01-11T02:25:44;47.72;;;21.83;;
78131;SDS011;67381;47.672;9.380;2024-01-11T02:28:11;48.78;;;21.88;;
78131;SDS011;67381;47.672;9.380;2024-01-11T02:30:38;47.08;;;20.08;;
78131;SDS011;67381;47.672;9.380;2024-01-11T02:33:05;52.17;;;21.13;;
78131;SDS011;67381;47.672;9.380;2024-01-11T02:35:32;49.30;;;20.27;;
78131;SDS011;67381;47.672;9.380;2024-01-11T02:38:00;48.22;;;22.05;;
78131;SDS011;67381;47.672;9.380;2024-01-11T02:40:28;43.95;;;19.27;;
78131;SDS011;67381;47.672;9.380;2024-01-11T02:42:56;50.72;;;21.30;;
78131;SDS011;67381;47.672;9.380;2024-01-11T02:45:23;50.28;;;23.80;;
78131;SDS011;67381;47.672;9.380;2024-01-11T02:47:50;46.28;;;20.33;;
78131;SDS011;67381;47.672;9.380;2024-01-11T02:50:17;46.65;;;21.65;;
78131;SDS011;67381;47.672;9.380;2024-01-11T02:52:44;48.25;;;20.50;;
78131;SDS011;67381;47.672;9.380;2024-01-11T02:55:11;42.60;;;19.88;;
78131;SDS011;67381;47.672;9.380;2024-01-11T02:57:38;43.63;;;20.85;;
78131;SDS011;67381;47.672;9.380;2024-01-11T03:00:05;43.25;;;19.38;;
78131;SDS011;67381;47.672;9.380;2024-01-11T03:02:33;51.75;;;21.67;;
78131;SDS011;67381;47.672;9.380;2024-01-11T03:05:00;51.38;;;20.33;;
78131;SDS011;67381;47.672;9.380;2024-01-11T03:07:27;51.03;;;21.80;;
78131;SDS011;67381;47.672;9.380;2024-01-11T03:09:55;46.33;;;20.95;;
78131;SDS011;67381;47.672;9.380;2024-01-11T03:12:22;46.08;;;21.00;;
78131;SDS011;67381;47.672;9.380;2024-01-11T03:14:52;51.40;;;23.77;;
78131;SDS011;67381;47.672;9.380;2024-01-11T03:17:19;48.55;;;21.85;;
78131;SDS011;67381;47.672;9.380;2024-01-11T03:19:46;52.03;;;20.40;;
78131;SDS011;67381;47.672;9.380;2024-01-11T03:22:13;50.42;;;20.20;;
78131;SDS011;67381;47.672;9.380;2024-01-11T03:24:40;45.90;;;20.88;;
78131;SDS011;67381;47.672;9.380;2024-01-11T03:27:08;46.70;;;21.38;;
78131;SDS011;67381;47.672;9.380;2024-01-11T03:29:35;52.05;;;23.17;;
78131;SDS011;67381;47.672;9.380;2024-01-11T03:32:02;51.13;;;22.90;;
78131;SDS011;67381;47.672;9.380;2024-01-11T03:34:29;54.15;;;21.73;;
78131;SDS011;67381;47.672;9.380;2024-01-11T03:36:56;47.63;;;22.27;;
78131;SDS011;67381;47.672;9.380;2024-01-11T03:39:24;50.60;;;23.88;;
78131;SDS011;67381;47.672;9.380;2024-01-11T03:41:51;47.20;;;20.20;;
78131;SDS011;67381;47.672;9.380;2024-01-11T03:44:19;46.45;;;18.77;;
78131;SDS011;67381;47.672;9.380;2024-01-11T03:46:46;49.08;;;21.40;;
78131;SDS011;67381;47.672;9.380;2024-01-11T03:49:13;50.08;;;22.17;;
78131;SDS011;67381;47.672;9.380;2024-01-11T03:51:41;52.95;;;23.58;;
78131;SDS011;67381;47.672;9.380;2024-01-11T03:54:08;51.65;;;22.48;;
78131;SDS011;67381;47.672;9.380;2024-01-11T03:56:38;51.92;;;20.88;;
78131;SDS011;67381;47.672;9.380;2024-01-11T03:59:08;49.03;;;22.90;;
78131;SDS011;67381;47.672;9.380;2024-01-11T04:01:40;56.22;;;19.77;;
78131;SDS011;67381;47.672;9.380;2024-01-11T04:04:07;44.83;;;19.98;;
78131;SDS011;67381;47.672;9.380;2024-01-11T04:06:34;46.88;;;22.08;;
78131;SDS011;67381;47.672;9.380;2024-01-11T04:09:02;45.83;;;21.40;;
78131;SDS011;67381;47.672;9.380;2024-01-11T04:11:29;50.33;;;21.02;;
78131;SDS011;67381;47.672;9.380;2024-01-11T04:13:56;47.25;;;21.80;;
78131;SDS011;67381;47.672;9.380;2024-01-11T04:16:23;52.80;;;24.17;;
78131;SDS011;67381;47.672;9.380;2024-01-11T04:18:51;48.45;;;21.40;;
78131;SDS011;67381;47.672;9.380;2024-01-11T04:21:21;51.05;;;22.17;;
78131;SDS011;67381;47.672;9.380;2024-01-11T04:23:49;51.50;;;24.15;;
78131;SDS011;67381;47.672;9.380;2024-01-11T04:26:17;55.50;;;22.25;;
78131;SDS011;67381;47.672;9.380;2024-01-11T04:28:44;50.17;;;21.88;;
78131;SDS011;67381;47.672;9.380;2024-01-11T04:31:12;48.03;;;20.73;;
78131;SDS011;67381;47.672;9.380;2024-01-11T04:33:45;49.50;;;22.08;;
78131;SDS011;67381;47.672;9.380;2024-01-11T04:36:12;50.63;;;21.75;;
78131;SDS011;67381;47.672;9.380;2024-01-11T04:38:40;46.40;;;21.60;;
78131;SDS011;67381;47.672;9.380;2024-01-11T04:41:07;49.97;;;20.42;;
78131;SDS011;67381;47.672;9.380;2024-01-11T04:43:38;50.05;;;21.38;;
78131;SDS011;67381;47.672;9.380;2024-01-11T04:46:19;47.60;;;19.77;;
78131;SDS011;67381;47.672;9.380;2024-01-11T04:48:47;49.45;;;22.52;;
78131;SDS011;67381;47.672;9.380;2024-01-11T04:51:16;42.20;;;19.83;;
78131;SDS011;67381;47.672;9.380;2024-01-11T04:53:44;47.35;;;19.17;;
78131;SDS011;67381;47.672;9.380;2024-01-11T04:56:13;45.58;;;20.85;;
78131;SDS011;67381;47.672;9.380;2024-01-11T04:58:41;47.85;;;21.98;;
78131;SDS011;67381;47.672;9.380;2024-01-11T05:01:15;54.10;;;22.08;;
78131;SDS011;67381;47.672;9.380;2024-01-11T05:03:43;41.45;;;19.80;;
78131;SDS011;67381;47.672;9.380;2024-01-11T05:06:17;44.30;;;21.20;;
78131;SDS011;67381;47.672;9.380;2024-01-11T05:08:45;50.85;;;20.10;;
78131;SDS011;67381;47.672;9.380;2024-01-11T05:11:19;52.65;;;24.25;;
78131;SDS011;67381;47.672;9.380;2024-01-11T05:13:47;52.35;;;21.48;;
78131;SDS011;67381;47.672;9.380;2024-01-11T05:16:21;59.80;;;23.05;;
78131;SDS011;67381;47.672;9.380;2024-01-11T05:18:49;49.25;;;21.25;;
78131;SDS011;67381;47.672;9.380;2024-01-11T05:21:17;47.50;;;20.75;;
78131;SDS011;67381;47.672;9.380;2024-01-11T05:23:44;47.72;;;20.20;;
78131;SDS011;67381;47.672;9.380;2024-01-11T05:26:12;47.90;;;20.35;;
78131;SDS011;67381;47.672;9.380;2024-01-11T05:28:40;48.08;;;20.88;;
78131;SDS011;67381;47.672;9.380;2024-01-11T05:31:08;50.92;;;20.95;;
78131;SDS011;67381;47.672;9.380;2024-01-11T05:33:35;46.50;;;18.25;;
78131;SDS011;67381;47.672;9.380;2024-01-11T05:36:03;45.83;;;19.42;;
78131;SDS011;67381;47.672;9.380;2024-01-11T05:38:30;44.03;;;20.20;;
78131;SDS011;67381;47.672;9.380;2024-01-11T05:40:57;38.72;;;21.15;;
78131;SDS011;67381;47.672;9.380;2024-01-11T05:43:24;40.53;;;20.45;;
78131;SDS011;67381;47.672;9.380;2024-01-11T05:45:51;43.05;;;19.95;;
78131;SDS011;67381;47.672;9.380;2024-01-11T05:48:18;47.60;;;20.85;;
78131;SDS011;67381;47.672;9.380;2024-01-11T05:50:45;43.72;;;19.40;;
78131;SDS011;67381;47.672;9.380;2024-01-11T05:53:12;42.35;;;17.60;;
78131;SDS011;67381;47.672;9.380;2024-01-11T05:55:40;44.58;;;17.13;;
78131;SDS011;67381;47.672;9.380;2024-01-11T05:58:07;41.95;;;17.73;;
78131;SDS011;67381;47.672;9.380;2024-01-11T06:00:34;40.22;;;18.38;;
78131;SDS011;67381;47.672;9.380;2024-01-11T06:03:01;42.10;;;18.77;;
78131;SDS011;67381;47.672;9.380;2024-01-11T06:05:28;42.25;;;18.88;;
78131;SDS011;67381;47.672;9.380;2024-01-11T06:07:56;45.17;;;18.83;;
78131;SDS011;67381;47.672;9.380;2024-01-11T06:10:23;42.60;;;17.73;;
78131;SDS011;67381;47.672;9.380;2024-01-11T06:12:50;40.63;;;19.30;;
78131;SDS011;67381;47.672;9.380;2024-01-11T06:15:17;41.63;;;18.75;;
78131;SDS011;67381;47.672;9.380;2024-01-11T06:17:45;43.42;;;18.83;;
78131;SDS011;67381;47.672;9.380;2024-01-11T06:20:12;44.17;;;19.50;;
78131;SDS011;67381;47.672;9.380;2024-01-11T06:22:40;37.40;;;16.60;;
78131;SDS011;67381;47.672;9.380;2024-01-11T06:25:08;44.80;;;18.80;;
78131;SDS011;67381;47.672;9.380;2024-01-11T06:27:35;44.85;;;20.15;;
78131;SDS011;67381;47.672;9.380;2024-01-11T06:30:03;42.13;;;16.95;;
78131;SDS011;67381;47.672;9.380;2024-01-11T06:32:30;44.22;;;18.45;;
78131;SDS011;67381;47.672;9.380;2024-01-11T06:34:57;45.13;;;20.38;;
78131;SDS011;67381;47.672;9.380;2024-01-11T06:37:25;42.38;;;16.50;;
78131;SDS011;67381;47.672;9.380;2024-01-11T06:39:52;44.03;;;17.75;;
78131;SDS011;67381;47.672;9.380;2024-01-11T06:42:19;41.35;;;19.25;;
78131;SDS011;67381;47.672;9.380;2024-01-11T06:44:46;36.03;;;16.77;;
78131;SDS011;67381;47.672;9.380;2024-01-11T06:47:13;36.97;;;17.02;;
78131;SDS011;67381;47.672;9.380;2024-01-11T06:49:41;43.10;;;17.83;;
78131;SDS011;67381;47.672;9.380;2024-01-11T06:52:08;39.88;;;17.05;;
78131;SDS011;67381;47.672;9.380;2024-01-11T06:54:35;36.75;;;16.15;;
78131;SDS011;67381;47.672;9.380;2024-01-11T06:57:02;35.08;;;16.65;;
78131;SDS011;67381;47.672;9.380;2024-01-11T06:59:29;36.10;;;16.33;;
78131;SDS011;67381;47.672;9.380;2024-01-11T07:01:56;42.45;;;17.30;;
78131;SDS011;67381;47.672;9.380;2024-01-11T07:04:23;33.28;;;15.80;;
78131;SDS011;67381;47.672;9.380;2024-01-11T07:06:50;31.58;;;16.10;;
78131;SDS011;67381;47.672;9.380;2024-01-11T07:09:17;30.38;;;15.05;;
78131;SDS011;67381;47.672;9.380;2024-01-11T07:11:45;33.03;;;15.68;;
78131;SDS011;67381;47.672;9.380;2024-01-11T07:14:12;39.45;;;16.38;;
78131;SDS011;67381;47.672;9.380;2024-01-11T07:16:39;43.47;;;17.52;;
78131;SDS011;67381;47.672;9.380;2024-01-11T07:19:06;38.95;;;18.60;;
78131;SDS011;67381;47.672;9.380;2024-01-11T07:21:33;34.60;;;15.52;;
78131;SDS011;67381;47.672;9.380;2024-01-11T07:24:00;35.28;;;16.27;;
78131;SDS011;67381;47.672;9.380;2024-01-11T07:26:27;34.58;;;16.00;;
78131;SDS011;67381;47.672;9.380;2024-01-11T07:28:54;36.20;;;15.25;;
78131;SDS011;67381;47.672;9.380;2024-01-11T07:31:21;36.40;;;15.05;;
78131;SDS011;67381;47.672;9.380;2024-01-11T07:33:49;36.38;;;13.40;;
78131;SDS011;67381;47.672;9.380;2024-01-11T07:36:16;30.77;;;12.32;;
78131;SDS011;67381;47.672;9.380;2024-01-11T07:38:43;32.92;;;16.17;;
78131;SDS011;67381;47.672;9.380;2024-01-11T07:41:10;30.05;;;14.32;;
78131;SDS011;67381;47.672;9.380;2024-01-11T07:43:37;35.75;;;15.18;;
78131;SDS011;67381;47.672;9.380;2024-01-11T07:46:07;32.40;;;13.75;;
78131;SDS011;67381;47.672;9.380;2024-01-11T07:48:34;29.92;;;14.07;;
78131;SDS011;67381;47.672;9.380;2024-01-11T07:51:01;35.58;;;15.57;;
78131;SDS011;67381;47.672;9.380;2024-01-11T07:53:29;34.83;;;12.98;;
78131;SDS011;67381;47.672;9.380;2024-01-11T07:55:57;29.02;;;12.80;;
78131;SDS011;67381;47.672;9.380;2024-01-11T07:58:25;35.65;;;15.32;;
78131;SDS011;67381;47.672;9.380;2024-01-11T08:00:52;35.83;;;13.32;;
78131;SDS011;67381;47.672;9.380;2024-01-11T08:03:19;31.20;;;13.90;;
78131;SDS011;67381;47.672;9.380;2024-01-11T08:05:46;25.15;;;11.85;;
78131;SDS011;67381;47.672;9.380;2024-01-11T08:08:13;36.95;;;14.07;;
78131;SDS011;67381;47.672;9.380;2024-01-11T08:10:40;33.58;;;14.20;;
78131;SDS011;67381;47.672;9.380;2024-01-11T08:13:07;30.33;;;12.48;;
78131;SDS011;67381;47.672;9.380;2024-01-11T08:15:36;26.75;;;12.50;;
78131;SDS011;67381;47.672;9.380;2024-01-11T08:18:04;30.60;;;14.30;;
78131;SDS011;67381;47.672;9.380;2024-01-11T08:20:31;29.13;;;12.68;;
78131;SDS011;67381;47.672;9.380;2024-01-11T08:22:59;35.72;;;14.27;;
78131;SDS011;67381;47.672;9.380;2024-01-11T08:25:26;28.40;;;13.25;;
78131;SDS011;67381;47.672;9.380;2024-01-11T08:27:53;27.92;;;12.55;;
78131;SDS011;67381;47.672;9.380;2024-01-11T08:30:20;24.55;;;12.82;;
78131;SDS011;67381;47.672;9.380;2024-01-11T08:32:48;34.50;;;15.55;;
78131;SDS011;67381;47.672;9.380;2024-01-11T08:35:15;31.55;;;12.68;;
78131;SDS011;67381;47.672;9.380;2024-01-11T08:37:43;28.52;;;12.80;;
78131;SDS011;67381;47.672;9.380;2024-01-11T08:40:10;27.63;;;12.27;;
78131;SDS011;67381;47.672;9.380;2024-01-11T08:42:38;29.65;;;13.80;;
78131;SDS011;67381;47.672;9.380;2024-01-11T08:45:06;33.72;;;13.52;;
78131;SDS011;67381;47.672;9.380;2024-01-11T08:47:34;31.55;;;13.52;;
78131;SDS011;67381;47.672;9.380;2024-01-11T08:50:01;25.63;;;13.80;;
78131;SDS011;67381;47.672;9.380;2024-01-11T08:52:33;31.00;;;12.10;;
78131;SDS011;67381;47.672;9.380;2024-01-11T08:55:00;31.63;;;13.88;;
78131;SDS011;67381;47.672;9.380;2024-01-11T08:57:28;27.88;;;12.73;;
78131;SDS011;67381;47.672;9.380;2024-01-11T08:59:55;30.92;;;13.30;;
78131;SDS011;67381;47.672;9.380;2024-01-11T09:02:22;30.70;;;13.80;;
78131;SDS011;67381;47.672;9.380;2024-01-11T09:04:49;25.42;;;12.07;;
78131;SDS011;67381;47.672;9.380;2024-01-11T09:07:17;33.72;;;13.00;;
78131;SDS011;67381;47.672;9.380;2024-01-11T09:09:44;27.08;;;12.85;;
78131;SDS011;67381;47.672;9.380;2024-01-11T09:12:13;28.15;;;11.98;;
78131;SDS011;67381;47.672;9.380;2024-01-11T09:14:40;28.00;;;12.40;;
78131;SDS011;67381;47.672;9.380;2024-01-11T09:17:08;27.50;;;11.75;;
78131;SDS011;67381;47.672;9.380;2024-01-11T09:19:35;29.70;;;12.40;;
78131;SDS011;67381;47.672;9.380;2024-01-11T09:22:04;34.05;;;13.15;;
78131;SDS011;67381;47.672;9.380;2024-01-11T09:24:31;23.98;;;10.13;;
78131;SDS011;67381;47.672;9.380;2024-01-11T09:27:00;27.02;;;10.35;;
78131;SDS011;67381;47.672;9.380;2024-01-11T09:29:27;26.50;;;10.55;;
78131;SDS011;67381;47.672;9.380;2024-01-11T09:31:54;21.90;;;9.95;;
78131;SDS011;67381;47.672;9.380;2024-01-11T09:34:21;22.92;;;10.40;;
78131;SDS011;67381;47.672;9.380;2024-01-11T09:36:48;20.35;;;10.55;;
78131;SDS011;67381;47.672;9.380;2024-01-11T09:39:15;21.52;;;10.02;;
78131;SDS011;67381;47.672;9.380;2024-01-11T09:41:50;17.95;;;9.27;;
78131;SDS011;67381;47.672;9.380;2024-01-11T09:44:18;20.77;;;10.05;;
78131;SDS011;67381;47.672;9.380;2024-01-11T09:46:45;23.10;;;10.30;;
78131;SDS011;67381;47.672;9.380;2024-01-11T09:49:14;17.92;;;9.20;;
78131;SDS011;67381;47.672;9.380;2024-01-11T09:51:42;20.58;;;8.57;;
78131;SDS011;67381;47.672;9.380;2024-01-11T09:54:11;22.27;;;9.98;;
78131;SDS011;67381;47.672;9.380;2024-01-11T09:56:39;20.55;;;9.20;;
78131;SDS011;67381;47.672;9.380;2024-01-11T09:59:06;18.75;;;8.70;;
78131;SDS011;67381;47.672;9.380;2024-01-11T10:01:34;21.40;;;8.77;;
78131;SDS011;67381;47.672;9.380;2024-01-11T10:04:01;22.15;;;9.50;;
78131;SDS011;67381;47.672;9.380;2024-01-11T10:06:29;21.45;;;9.80;;
78131;SDS011;67381;47.672;9.380;2024-01-11T10:09:00;19.98;;;10.27;;
78131;SDS011;67381;47.672;9.380;2024-01-11T10:11:27;24.27;;;10.55;;
78131;SDS011;67381;47.672;9.380;2024-01-11T10:13:57;21.40;;;10.20;;
78131;SDS011;67381;47.672;9.380;2024-01-11T10:16:28;25.13;;;11.80;;
78131;SDS011;67381;47.672;9.380;2024-01-11T10:18:56;27.88;;;12.80;;
78131;SDS011;67381;47.672;9.380;2024-01-11T10:21:24;24.98;;;12.32;;
78131;SDS011;67381;47.672;9.380;2024-01-11T10:23:51;28.50;;;11.68;;
78131;SDS011;67381;47.672;9.380;2024-01-11T10:26:18;23.92;;;10.80;;
78131;SDS011;67381;47.672;9.380;2024-01-11T10:28:46;23.80;;;11.27;;
78131;SDS011;67381;47.672;9.380;2024-01-11T10:31:13;31.85;;;12.38;;
78131;SDS011;67381;47.672;9.380;2024-01-11T10:33:43;25.85;;;11.98;;
78131;SDS011;67381;47.672;9.380;2024-01-11T10:36:11;37.90;;;14.50;;
78131;SDS011;67381;47.672;9.380;2024-01-11T10:38:39;26.02;;;11.55;;
78131;SDS011;67381;47.672;9.380;2024-01-11T10:41:06;25.55;;;12.20;;
78131;SDS011;67381;47.672;9.380;2024-01-11T10:43:37;21.27;;;10.40;;
78131;SDS011;67381;47.672;9.380;2024-01-11T10:46:04;26.20;;;11.90;;
78131;SDS011;67381;47.672;9.380;2024-01-11T10:48:36;23.42;;;11.00;;
78131;SDS011;67381;47.672;9.380;2024-01-11T10:51:05;25.95;;;12.43;;
78131;SDS011;67381;47.672;9.380;2024-01-11T10:53:44;24.23;;;10.15;;
78131;SDS011;67381;47.672;9.380;2024-01-11T10:56:15;18.83;;;9.70;;
78131;SDS011;67381;47.672;9.380;2024-01-11T10:58:45;24.70;;;10.27;;
78131;SDS011;67381;47.672;9.380;2024-01-11T11:01:13;23.25;;;12.18;;
78131;SDS011;67381;47.672;9.380;2024-01-11T11:03:40;27.50;;;12.70;;
78131;SDS011;67381;47.672;9.380;2024-01-11T11:06:11;26.67;;;12.65;;
78131;SDS011;67381;47.672;9.380;2024-01-11T11:08:39;23.20;;;11.88;;
78131;SDS011;67381;47.672;9.380;2024-01-11T11:11:06;29.23;;;12.85;;
78131;SDS011;67381;47.672;9.380;2024-01-11T11:13:34;26.42;;;11.13;;
78131;SDS011;67381;47.672;9.380;2024-01-11T11:16:04;24.00;;;11.88;;
78131;SDS011;67381;47.672;9.380;2024-01-11T11:18:40;23.77;;;10.55;;
78131;SDS011;67381;47.672;9.380;2024-01-11T11:21:10;27.02;;;11.30;;
78131;SDS011;67381;47.672;9.380;2024-01-11T11:23:38;24.48;;;9.68;;
78131;SDS011;67381;47.672;9.380;2024-01-11T11:26:06;23.33;;;10.82;;
78131;SDS011;67381;47.672;9.380;2024-01-11T11:28:36;20.15;;;9.77;;
78131;SDS011;67381;47.672;9.380;2024-01-11T11:31:03;22.48;;;10.23;;
78131;SDS011;67381;47.672;9.380;2024-01-11T11:33:30;21.60;;;9.95;;
78131;SDS011;67381;47.672;9.380;2024-01-11T11:35:58;25.52;;;11.52;;
78131;SDS011;67381;47.672;9.380;2024-01-11T11:38:26;20.27;;;9.35;;
78131;SDS011;67381;47.672;9.380;2024-01-11T11:40:55;20.17;;;9.48;;
78131;SDS011;67381;47.672;9.380;2024-01-11T11:43:22;22.02;;;9.75;;
78131;SDS011;67381;47.672;9.380;2024-01-11T11:45:50;19.25;;;9.10;;
78131;SDS011;67381;47.672;9.380;2024-01-11T11:51:07;22.85;;;9.52;;
78131;SDS011;67381;47.672;9.380;2024-01-11T11:53:39;19.50;;;9.18;;
78131;SDS011;67381;47.672;9.380;2024-01-11T11:56:07;18.63;;;9.00;;
78131;SDS011;67381;47.672;9.380;2024-01-11T11:58:34;19.00;;;9.65;;
78131;SDS011;67381;47.672;9.380;2024-01-11T12:01:02;20.30;;;9.57;;
78131;SDS011;67381;47.672;9.380;2024-01-11T12:03:30;20.00;;;9.88;;
78131;SDS011;67381;47.672;9.380;2024-01-11T12:05:57;18.42;;;8.70;;
78131;SDS011;67381;47.672;9.380;2024-01-11T12:08:25;23.88;;;9.85;;
78131;SDS011;67381;47.672;9.380;2024-01-11T12:10:52;21.80;;;8.77;;
78131;SDS011;67381;47.672;9.380;2024-01-11T12:13:19;20.25;;;8.90;;
78131;SDS011;67381;47.672;9.380;2024-01-11T12:15:46;20.48;;;8.85;;
78131;SDS011;67381;47.672;9.380;2024-01-11T12:18:13;23.85;;;9.65;;
78131;SDS011;67381;47.672;9.380;2024-01-11T12:20:40;22.58;;;9.15;;
78131;SDS011;67381;47.672;9.380;2024-01-11T12:23:07;19.95;;;9.18;;
78131;SDS011;67381;47.672;9.380;2024-01-11T12:25:35;22.17;;;8.82;;
78131;SDS011;67381;47.672;9.380;2024-01-11T12:28:03;20.88;;;9.07;;
78131;SDS011;67381;47.672;9.380;2024-01-11T12:30:30;22.05;;;9.40;;
78131;SDS011;67381;47.672;9.380;2024-01-11T12:32:57;20.77;;;10.20;;
78131;SDS011;67381;47.672;9.380;2024-01-11T12:35:24;19.20;;;8.23;;
78131;SDS011;67381;47.672;9.380;2024-01-11T12:38:02;19.73;;;8.80;;
78131;SDS011;67381;47.672;9.380;2024-01-11T12:40:34;21.33;;;9.60;;
78131;SDS011;67381;47.672;9.380;2024-01-11T12:43:02;21.30;;;9.82;;
78131;SDS011;67381;47.672;9.380;2024-01-11T12:45:29;28.63;;;10.88;;
78131;SDS011;67381;47.672;9.380;2024-01-11T12:47:59;23.92;;;9.80;;
78131;SDS011;67381;47.672;9.380;2024-01-11T12:50:27;20.10;;;10.05;;
78131;SDS011;67381;47.672;9.380;2024-01-11T12:53:07;23.77;;;9.38;;
78131;SDS011;67381;47.672;9.380;2024-01-11T12:55:34;19.52;;;8.95;;
78131;SDS011;67381;47.672;9.380;2024-01-11T12:58:05;18.88;;;8.45;;
78131;SDS011;67381;47.672;9.380;2024-01-11T13:00:32;17.45;;;8.77;;
78131;SDS011;67381;47.672;9.380;2024-01-11T13:02:59;21.73;;;9.05;;
78131;SDS011;67381;47.672;9.380;2024-01-11T13:05:26;20.83;;;8.60;;
78131;SDS011;67381;47.672;9.380;2024-01-11T13:07:56;18.75;;;8.63;;
78131;SDS011;67381;47.672;9.380;2024-01-11T13:10:23;20.20;;;9.07;;
78131;SDS011;67381;47.672;9.380;2024-01-11T13:12:55;19.90;;;9.18;;
78131;SDS011;67381;47.672;9.380;2024-01-11T13:15:22;23.42;;;9.95;;
78131;SDS011;67381;47.672;9.380;2024-01-11T13:17:50;20.70;;;9.48;;
78131;SDS011;67381;47.672;9.380;2024-01-11T13:20:17;22.80;;;9.73;;
78131;SDS011;67381;47.672;9.380;2024-01-11T13:22:45;23.25;;;9.57;;
78131;SDS011;67381;47.672;9.380;2024-01-11T13:25:12;26.23;;;11.00;;
78131;SDS011;67381;47.672;9.380;2024-01-11T13:27:39;22.00;;;9.60;;
78131;SDS011;67381;47.672;9.380;2024-01-11T13:30:07;23.50;;;10.52;;
78131;SDS011;67381;47.672;9.380;2024-01-11T13:32:35;24.33;;;10.45;;
78131;SDS011;67381;47.672;9.380;2024-01-11T13:35:02;23.60;;;10.70;;
78131;SDS011;67381;47.672;9.380;2024-01-11T13:37:30;21.58;;;9.05;;
78131;SDS011;67381;47.672;9.380;2024-01-11T13:39:57;21.45;;;9.07;;
78131;SDS011;67381;47.672;9.380;2024-01-11T13:42:24;22.65;;;9.15;;
78131;SDS011;67381;47.672;9.380;2024-01-11T13:44:51;22.40;;;9.55;;
78131;SDS011;67381;47.672;9.380;2024-01-11T13:47:18;18.45;;;8.95;;
78131;SDS011;67381;47.672;9.380;2024-01-11T13:49:46;24.90;;;10.23;;
78131;SDS011;67381;47.672;9.380;2024-01-11T13:52:13;24.50;;;10.55;;
78131;SDS011;67381;47.672;9.380;2024-01-11T13:54:40;25.55;;;10.25;;
78131;SDS011;67381;47.672;9.380;2024-01-11T13:57:07;23.05;;;9.95;;
78131;SDS011;67381;47.672;9.380;2024-01-11T13:59:34;25.35;;;10.68;;
78131;SDS011;67381;47.672;9.380;2024-01-11T14:02:02;22.92;;;10.55;;
78131;SDS011;67381;47.672;9.380;2024-01-11T14:04:30;24.15;;;9.27;;
78131;SDS011;67381;47.672;9.380;2024-01-11T14:06:57;21.50;;;8.65;;
78131;SDS011;67381;47.672;9.380;2024-01-11T14:09:24;20.73;;;8.52;;
78131;SDS011;67381;47.672;9.380;2024-01-11T14:11:51;22.75;;;10.77;;
78131;SDS011;67381;47.672;9.380;2024-01-11T14:14:18;23.35;;;10.02;;
78131;SDS011;67381;47.672;9.380;2024-01-11T14:16:47;24.63;;;9.25;;
78131;SDS011;67381;47.672;9.380;2024-01-11T14:19:14;25.05;;;10.07;;
78131;SDS011;67381;47.672;9.380;2024-01-11T14:21:42;22.98;;;10.18;;
78131;SDS011;67381;47.672;9.380;2024-01-11T14:24:09;25.60;;;10.85;;
78131;SDS011;67381;47.672;9.380;2024-01-11T14:26:36;25.73;;;10.27;;
78131;SDS011;67381;47.672;9.380;2024-01-11T14:29:03;22.48;;;10.52;;